createdAt,value
2019-04-26T00:00:34.169Z,17.20
2019-04-26T00:02:38.551Z,17.20
2019-04-26T00:04:42.032Z,17.10
2019-04-26T00:06:45.397Z,17.10
2019-04-26T00:08:48.613Z,17.00
2019-04-26T00:10:55.076Z,17.00
2019-04-26T00:13:00.165Z,17.00
2019-04-26T00:15:06.778Z,17.00
2019-04-26T00:17:11.486Z,17.00
2019-04-26T00:19:14.485Z,16.90
2019-04-26T00:21:18.314Z,16.90
2019-04-26T00:23:20.565Z,16.90
2019-04-26T00:25:23.922Z,16.90
2019-04-26T00:27:26.622Z,16.90
2019-04-26T00:29:29.229Z,16.90
2019-04-26T00:31:31.897Z,16.90
2019-04-26T00:33:35.237Z,16.80
2019-04-26T00:35:47.259Z,16.80
2019-04-26T00:37:41.298Z,16.80
2019-04-26T00:39:43.886Z,16.80
2019-04-26T00:41:46.590Z,16.80
2019-04-26T00:43:49.169Z,16.80
2019-04-26T00:45:52.651Z,16.70
2019-04-26T00:47:55.531Z,16.70
2019-04-26T00:49:59.618Z,16.70
2019-04-26T00:52:02.316Z,16.70
2019-04-26T00:54:04.931Z,16.70
2019-04-26T00:56:07.518Z,16.60
2019-04-26T00:58:10.105Z,16.60
2019-04-26T01:00:12.815Z,16.60
2019-04-26T01:02:30.334Z,16.60
2019-04-26T01:04:33.024Z,16.50
2019-04-26T01:06:36.418Z,16.50
2019-04-26T01:08:38.993Z,16.50
2019-04-26T01:10:42.345Z,16.40
2019-04-26T01:12:45.050Z,16.50
2019-04-26T01:14:47.640Z,16.50
2019-04-26T01:16:50.999Z,16.50
2019-04-26T01:18:53.625Z,16.40
2019-04-26T01:20:56.971Z,16.40
2019-04-26T01:22:59.557Z,16.40
2019-04-26T01:25:02.191Z,16.40
2019-04-26T01:27:04.780Z,16.40
2019-04-26T01:29:09.153Z,16.40
2019-04-26T01:31:13.303Z,16.30
2019-04-26T01:33:16.009Z,16.30
2019-04-26T01:35:19.357Z,16.30
2019-04-26T01:37:22.478Z,16.30
2019-04-26T01:39:23.992Z,16.30
2019-04-26T01:41:32.530Z,16.30
2019-04-26T01:43:38.928Z,16.30
2019-04-26T01:45:46.007Z,16.20
2019-04-26T01:47:49.414Z,16.20
2019-04-26T01:49:52.027Z,16.20
2019-04-26T01:52:00.408Z,16.20
2019-04-26T01:54:03.046Z,16.20
2019-04-26T01:56:05.667Z,16.10
2019-04-26T01:58:08.259Z,16.10
2019-04-26T02:00:25.883Z,16.10
2019-04-26T02:02:43.394Z,16.10
2019-04-26T02:04:46.503Z,16.10
2019-04-26T02:06:49.154Z,16.00
2019-04-26T02:08:51.937Z,16.00
2019-04-26T02:10:54.523Z,16.00
2019-04-26T02:12:57.103Z,16.00
2019-04-26T02:14:59.739Z,16.00
2019-04-26T02:17:02.330Z,16.00
2019-04-26T02:19:04.917Z,16.00
2019-04-26T02:21:24.504Z,16.00
2019-04-26T02:23:42.735Z,16.00
2019-04-26T02:25:45.323Z,15.90
2019-04-26T02:27:47.960Z,15.90
2019-04-26T02:29:51.394Z,15.90
2019-04-26T02:31:54.087Z,15.90
2019-04-26T02:33:56.872Z,15.90
2019-04-26T02:36:00.227Z,15.90
2019-04-26T02:38:02.824Z,15.90
2019-04-26T02:40:06.954Z,15.90
2019-04-26T02:42:11.801Z,15.90
2019-04-26T02:44:14.428Z,15.90
2019-04-26T02:46:19.781Z,15.90
2019-04-26T02:48:42.127Z,15.90
2019-04-26T02:50:47.433Z,15.90
2019-04-26T02:52:55.151Z,15.90
2019-04-26T02:54:59.770Z,15.90
2019-04-26T02:57:02.351Z,15.80
2019-04-26T02:59:19.880Z,15.90
2019-04-26T03:01:23.243Z,15.80
2019-04-26T03:03:25.911Z,15.80
2019-04-26T03:05:30.318Z,15.80
2019-04-26T03:07:43.882Z,15.80
2019-04-26T03:09:46.488Z,15.90
2019-04-26T03:11:52.983Z,15.80
2019-04-26T03:14:01.193Z,15.80
2019-04-26T03:16:18.751Z,15.80
2019-04-26T03:18:27.960Z,15.80
2019-04-26T03:20:34.958Z,15.80
2019-04-26T03:22:59.139Z,15.80
2019-04-26T03:25:12.583Z,15.80
2019-04-26T03:27:39.734Z,15.80
2019-04-26T03:30:18.827Z,15.70
2019-04-26T03:32:28.256Z,15.70
2019-04-26T03:34:39.476Z,15.70
2019-04-26T03:36:46.596Z,15.70
2019-04-26T03:38:52.077Z,15.70
2019-04-26T03:40:57.542Z,15.70
2019-04-26T03:43:14.746Z,15.80
2019-04-26T03:45:35.083Z,15.80
2019-04-26T03:47:43.991Z,15.80
2019-04-26T03:49:54.350Z,15.80
2019-04-26T03:52:18.276Z,15.80
2019-04-26T03:54:22.668Z,15.80
2019-04-26T03:56:27.021Z,15.80
2019-04-26T03:58:51.601Z,15.90
2019-04-26T04:00:56.014Z,15.90
2019-04-26T04:03:10.876Z,15.90
2019-04-26T04:05:14.427Z,15.90
2019-04-26T04:07:17.027Z,15.90
2019-04-26T04:09:19.723Z,15.90
2019-04-26T04:11:26.122Z,16.00
2019-04-26T04:13:43.273Z,16.00
2019-04-26T04:15:44.116Z,16.00
2019-04-26T04:17:52.665Z,16.00
2019-04-26T04:20:07.111Z,16.10
2019-04-26T04:22:11.392Z,16.10
2019-04-26T04:24:14.017Z,16.10
2019-04-26T04:26:17.369Z,16.10
2019-04-26T04:28:31.866Z,16.10
2019-04-26T04:30:40.002Z,16.10
2019-04-26T04:32:49.864Z,16.10
2019-04-26T04:34:52.756Z,16.10
2019-04-26T04:36:54.467Z,16.20
2019-04-26T04:39:11.287Z,16.20
2019-04-26T04:41:14.513Z,16.20
2019-04-26T04:43:23.485Z,16.20
2019-04-26T04:48:22.855Z,16.20
2019-04-26T04:50:30.068Z,16.50
2019-04-26T04:52:43.226Z,16.50
2019-04-26T04:55:00.807Z,16.50
2019-04-26T04:56:59.067Z,16.40
2019-04-26T04:59:10.229Z,16.40
2019-04-26T05:01:21.284Z,16.40
2019-04-26T05:03:27.587Z,16.40
2019-04-26T05:05:45.395Z,16.30
2019-04-26T05:08:06.777Z,16.30
2019-04-26T05:10:16.056Z,16.30
2019-04-26T05:12:18.717Z,16.30
2019-04-26T05:14:23.896Z,16.20
2019-04-26T05:16:33.255Z,16.20
2019-04-26T05:18:45.585Z,16.20
2019-04-26T05:20:49.983Z,16.20
2019-04-26T05:23:08.270Z,16.20
2019-04-26T05:25:34.467Z,16.20
2019-04-26T05:27:53.324Z,16.20
2019-04-26T05:29:59.700Z,16.10
2019-04-26T05:32:07.911Z,16.10
2019-04-26T05:34:15.271Z,16.10
2019-04-26T05:36:26.735Z,16.10
2019-04-26T05:38:47.781Z,16.10
2019-04-26T05:40:53.534Z,16.10
2019-04-26T05:43:20.615Z,16.10
2019-04-26T05:45:53.912Z,16.10
2019-04-26T05:48:11.200Z,16.00
2019-04-26T05:50:13.773Z,16.10
2019-04-26T05:52:51.593Z,16.10
2019-04-26T05:55:02.685Z,16.00
2019-04-26T05:57:13.731Z,16.00
2019-04-26T05:59:38.140Z,16.00
2019-04-26T06:04:45.995Z,16.00
2019-04-26T06:06:55.390Z,16.20
2019-04-26T06:09:03.694Z,16.20
2019-04-26T06:11:07.251Z,16.20
2019-04-26T06:13:16.339Z,16.10
2019-04-26T06:15:39.130Z,16.10
2019-04-26T06:18:11.147Z,16.10
2019-04-26T06:20:22.612Z,16.00
2019-04-26T06:22:40.739Z,16.00
2019-04-26T06:24:54.279Z,16.00
2019-04-26T06:27:13.533Z,16.00
2019-04-26T06:29:13.517Z,16.00
2019-04-26T06:31:27.670Z,16.00
2019-04-26T06:33:31.982Z,15.90
2019-04-26T06:35:34.582Z,15.90
2019-04-26T06:37:42.075Z,15.90
2019-04-26T06:39:47.319Z,16.00
2019-04-26T06:44:20.194Z,16.30
2019-04-26T06:46:34.467Z,16.30
2019-04-26T06:48:57.299Z,16.30
2019-04-26T06:51:24.767Z,16.30
2019-04-26T06:53:34.446Z,16.20
2019-04-26T06:55:52.994Z,16.20
2019-04-26T06:58:07.753Z,16.20
2019-04-26T07:00:10.334Z,16.10
2019-04-26T07:02:28.578Z,16.10
2019-04-26T07:04:35.580Z,16.10
2019-04-26T07:06:59.904Z,16.10
2019-04-26T07:09:06.400Z,16.10
2019-04-26T07:11:30.902Z,16.00
2019-04-26T07:13:52.778Z,16.10
2019-04-26T07:15:56.455Z,16.00
2019-04-26T07:18:10.729Z,16.10
2019-04-26T07:20:13.025Z,16.10
2019-04-26T07:22:20.272Z,16.10
2019-04-26T07:24:26.519Z,16.10
2019-04-26T07:26:48.582Z,16.10
2019-04-26T07:28:56.978Z,16.10
2019-04-26T07:31:08.355Z,16.10
2019-04-26T07:33:20.463Z,16.10
2019-04-26T07:35:31.565Z,16.10
2019-04-26T07:37:46.677Z,16.20
2019-04-26T07:40:18.395Z,16.10
2019-04-26T07:42:30.545Z,16.20
2019-04-26T07:44:52.160Z,16.20
2019-04-26T07:47:01.721Z,16.20
2019-04-26T07:49:30.727Z,16.20
2019-04-26T07:52:02.942Z,16.20
2019-04-26T07:54:16.895Z,16.20
2019-04-26T07:56:37.930Z,16.20
2019-04-26T07:58:56.135Z,16.20
2019-04-26T08:01:07.647Z,16.20
2019-04-26T08:03:16.726Z,16.30
2019-04-26T08:05:27.954Z,16.30
2019-04-26T08:07:40.473Z,16.30
2019-04-26T08:09:46.016Z,16.40
2019-04-26T08:11:49.409Z,16.40
2019-04-26T08:13:53.006Z,16.40
2019-04-26T08:16:14.689Z,16.50
2019-04-26T08:18:21.495Z,16.50
2019-04-26T08:20:28.189Z,16.50
2019-04-26T08:22:32.593Z,16.50
2019-04-26T08:24:31.784Z,16.50
2019-04-26T08:26:34.377Z,16.50
2019-04-26T08:28:37.860Z,16.60
2019-04-26T08:30:44.847Z,16.60
2019-04-26T08:32:49.496Z,16.60
2019-04-26T08:35:02.312Z,16.60
2019-04-26T08:37:20.999Z,16.70
2019-04-26T08:39:29.645Z,16.60
2019-04-26T08:41:26.778Z,16.60
2019-04-26T08:43:49.152Z,16.60
2019-04-26T08:46:03.187Z,16.60
2019-04-26T08:48:06.306Z,16.60
2019-04-26T08:50:18.915Z,16.60
2019-04-26T08:52:21.627Z,16.60
2019-04-26T08:54:24.234Z,16.60
2019-04-26T08:56:28.853Z,16.60
2019-04-26T08:58:31.422Z,16.60
2019-04-26T09:00:38.680Z,16.70
2019-04-26T09:02:43.243Z,16.60
2019-04-26T09:05:01.747Z,16.70
2019-04-26T09:07:04.430Z,16.70
2019-04-26T09:09:07.059Z,16.70
2019-04-26T09:11:21.957Z,16.70
2019-04-26T09:13:12.270Z,16.70
2019-04-26T09:15:15.662Z,16.70
2019-04-26T09:17:19.015Z,16.80
2019-04-26T09:19:21.623Z,16.80
2019-04-26T09:21:29.231Z,16.80
2019-04-26T09:23:40.339Z,16.80
2019-04-26T09:25:40.551Z,16.80
2019-04-26T09:27:46.151Z,16.80
2019-04-26T09:29:54.391Z,16.80
2019-04-26T09:31:59.347Z,16.90
2019-04-26T09:34:02.044Z,16.80
2019-04-26T09:36:04.720Z,16.90
2019-04-26T09:38:07.412Z,16.90
2019-04-26T09:40:10.912Z,16.90
2019-04-26T09:42:12.735Z,16.90
2019-04-26T09:44:32.054Z,16.90
2019-04-26T09:46:52.820Z,16.90
2019-04-26T09:48:54.799Z,16.90
2019-04-26T09:50:58.184Z,16.90
2019-04-26T09:53:01.560Z,16.90
2019-04-26T09:55:04.170Z,16.90
2019-04-26T09:57:06.782Z,16.90
2019-04-26T09:59:09.374Z,16.90
2019-04-26T10:01:12.071Z,16.90
2019-04-26T10:03:15.455Z,16.90
2019-04-26T10:05:22.326Z,16.90
2019-04-26T10:07:20.802Z,17.00
2019-04-26T10:09:23.408Z,17.00
2019-04-26T10:11:26.871Z,17.00
2019-04-26T10:13:30.501Z,17.00
2019-04-26T10:15:35.808Z,17.00
2019-04-26T10:17:38.395Z,17.00
2019-04-26T10:19:43.595Z,17.00
2019-04-26T10:21:46.190Z,17.00
2019-04-26T10:23:48.781Z,17.00
2019-04-26T10:25:53.636Z,17.00
2019-04-26T10:27:56.748Z,17.00
2019-04-26T10:30:07.712Z,17.00
2019-04-26T10:32:02.068Z,17.00
2019-04-26T10:34:07.789Z,17.00
2019-04-26T10:36:08.094Z,17.00
2019-04-26T10:38:10.708Z,17.00
2019-04-26T10:40:13.301Z,17.00
2019-04-26T10:42:16.740Z,17.00
2019-04-26T10:44:19.382Z,17.00
2019-04-26T10:46:24.456Z,17.00
2019-04-26T10:48:25.463Z,17.00
2019-04-26T10:50:33.043Z,17.10
2019-04-26T10:52:54.245Z,17.10
2019-04-26T10:55:00.363Z,17.00
2019-04-26T10:57:03.836Z,17.00
2019-04-26T10:59:09.846Z,17.00
2019-04-26T11:01:10.664Z,17.10
2019-04-26T11:03:13.274Z,17.00
2019-04-26T11:05:18.518Z,17.10
2019-04-26T11:07:18.490Z,17.10
2019-04-26T11:09:21.115Z,17.10
2019-04-26T11:11:23.902Z,17.10
2019-04-26T11:13:26.570Z,17.10
2019-04-26T11:15:32.552Z,17.20
2019-04-26T11:17:32.741Z,17.20
2019-04-26T11:19:35.726Z,17.10
2019-04-26T11:21:37.983Z,17.20
2019-04-26T11:23:41.031Z,17.20
2019-04-26T11:25:43.231Z,17.20
2019-04-26T11:27:48.546Z,17.20
2019-04-26T11:29:53.909Z,17.20
2019-04-26T11:31:54.041Z,17.20
2019-04-26T11:34:04.741Z,17.20
2019-04-26T11:35:58.054Z,17.30
2019-04-26T11:38:00.735Z,17.20
2019-04-26T11:40:03.274Z,17.30
2019-04-26T11:42:08.076Z,17.30
2019-04-26T11:44:08.516Z,17.30
2019-04-26T11:46:11.228Z,17.30
2019-04-26T11:48:14.082Z,17.40
2019-04-26T11:50:17.785Z,17.40
2019-04-26T11:52:20.075Z,17.40
2019-04-26T11:54:22.890Z,17.40
2019-04-26T11:56:25.489Z,17.40
2019-04-26T11:58:28.080Z,17.50
2019-04-26T12:00:34.732Z,17.50
2019-04-26T12:02:37.423Z,17.50
2019-04-26T12:04:53.699Z,17.50
2019-04-26T12:06:55.416Z,17.50
2019-04-26T12:08:58.771Z,17.50
2019-04-26T12:11:01.381Z,17.50
2019-04-26T12:13:05.755Z,17.50
2019-04-26T12:15:08.541Z,17.50
2019-04-26T12:17:10.841Z,17.50
2019-04-26T12:19:17.689Z,17.60
2019-04-26T12:21:16.811Z,17.60
2019-04-26T12:23:21.513Z,17.60
2019-04-26T12:25:22.840Z,17.60
2019-04-26T12:27:26.536Z,17.60
2019-04-26T12:29:29.687Z,17.70
2019-04-26T12:31:32.282Z,17.60
2019-04-26T12:33:34.878Z,17.70
2019-04-26T12:35:37.491Z,17.60
2019-04-26T12:37:40.857Z,17.60
2019-04-26T12:39:43.533Z,17.60
2019-04-26T12:41:46.360Z,17.60
2019-04-26T12:43:49.043Z,17.60
2019-04-26T12:45:52.578Z,17.60
2019-04-26T12:47:55.725Z,17.60
2019-04-26T12:49:58.960Z,17.60
2019-04-26T12:52:00.931Z,17.50
2019-04-26T12:54:08.239Z,17.50
2019-04-26T12:56:07.795Z,17.50
2019-04-26T12:58:11.088Z,17.50
2019-04-26T13:00:13.075Z,17.50
2019-04-26T13:02:20.386Z,17.50
2019-04-26T13:04:19.944Z,17.50
2019-04-26T13:06:22.553Z,17.50
2019-04-26T13:08:25.898Z,17.50
2019-04-26T13:10:44.904Z,17.50
2019-04-26T13:12:48.518Z,17.50
2019-04-26T13:14:57.446Z,17.50
2019-04-26T13:17:18.819Z,17.50
2019-04-26T13:19:22.175Z,17.50
2019-04-26T13:21:24.799Z,17.50
2019-04-26T13:23:29.903Z,17.50
2019-04-26T13:25:40.022Z,17.50
2019-04-26T13:27:33.515Z,17.60
2019-04-26T13:29:36.108Z,17.60
2019-04-26T13:31:39.464Z,17.70
2019-04-26T13:33:42.079Z,17.70
2019-04-26T13:35:46.645Z,17.70
2019-04-26T13:37:47.319Z,17.80
2019-04-26T13:39:51.291Z,17.90
2019-04-26T13:42:03.030Z,18.00
2019-04-26T13:43:57.209Z,18.00
2019-04-26T13:46:19.716Z,18.10
2019-04-26T13:48:28.228Z,18.20
2019-04-26T13:50:30.910Z,18.30
2019-04-26T13:52:33.528Z,18.30
2019-04-26T13:54:36.124Z,18.40
2019-04-26T13:56:38.863Z,18.50
2019-04-26T13:58:41.485Z,18.60
2019-04-26T14:00:44.967Z,18.60
2019-04-26T14:02:47.691Z,18.80
2019-04-26T14:04:51.047Z,18.80
2019-04-26T14:06:53.744Z,18.80
2019-04-26T14:08:58.114Z,18.90
2019-04-26T14:10:58.974Z,18.90
2019-04-26T14:13:01.669Z,19.00
2019-04-26T14:15:04.467Z,19.00
2019-04-26T14:17:06.952Z,19.10
2019-04-26T14:19:14.634Z,19.10
2019-04-26T14:21:12.268Z,19.10
2019-04-26T14:23:20.595Z,19.20
2019-04-26T14:25:26.949Z,19.20
2019-04-26T14:27:28.024Z,19.10
2019-04-26T14:29:32.496Z,19.10
2019-04-26T14:31:33.230Z,19.10
2019-04-26T14:33:35.864Z,19.10
2019-04-26T14:35:38.465Z,19.10
2019-04-26T14:37:41.161Z,19.10
2019-04-26T14:39:50.769Z,19.00
2019-04-26T14:41:52.603Z,19.00
2019-04-26T14:43:52.544Z,18.90
2019-04-26T14:45:56.005Z,19.00
2019-04-26T14:48:00.180Z,18.90
2019-04-26T14:50:13.025Z,18.80
2019-04-26T14:52:03.701Z,18.80
2019-04-26T14:54:07.331Z,18.80
2019-04-26T14:56:11.155Z,18.80
2019-04-26T14:58:13.863Z,18.80
2019-04-26T15:00:21.103Z,18.80
2019-04-26T15:02:35.180Z,18.80
2019-04-26T15:07:14.402Z,18.70
2019-04-26T15:09:19.997Z,18.70
2019-04-26T15:11:19.552Z,18.70
2019-04-26T15:13:23.571Z,18.70
2019-04-26T15:15:26.926Z,18.70
2019-04-26T15:17:27.275Z,18.70
2019-04-26T15:19:32.916Z,18.70
2019-04-26T15:21:34.312Z,18.70
2019-04-26T15:23:35.232Z,18.70
2019-04-26T15:25:41.278Z,18.70
2019-04-26T15:27:42.130Z,18.70
2019-04-26T15:29:44.226Z,18.70
2019-04-26T15:31:48.308Z,18.70
2019-04-26T15:33:52.776Z,18.70
2019-04-26T15:35:54.719Z,18.70
2019-04-26T15:37:57.478Z,18.70
2019-04-26T15:39:59.852Z,18.70
2019-04-26T15:42:17.278Z,18.70
2019-04-26T15:44:28.188Z,18.70
2019-04-26T15:46:33.860Z,18.70
2019-04-26T15:48:56.659Z,18.60
2019-04-26T15:50:59.219Z,18.60
2019-04-26T15:53:02.509Z,18.60
2019-04-26T15:55:06.048Z,18.60
2019-04-26T15:57:07.814Z,18.60
2019-04-26T15:59:10.341Z,18.60
2019-04-26T16:01:13.864Z,18.70
2019-04-26T16:03:15.560Z,18.70
2019-04-26T16:05:18.272Z,18.70
2019-04-26T16:07:27.471Z,18.80
2019-04-26T16:09:25.618Z,18.80
2019-04-26T16:11:28.967Z,18.80
2019-04-26T16:13:32.310Z,18.80
2019-04-26T16:15:34.210Z,18.80
2019-04-26T16:17:40.144Z,18.80
2019-04-26T16:19:40.250Z,18.90
2019-04-26T16:21:42.809Z,18.90
2019-04-26T16:23:50.985Z,18.90
2019-04-26T16:25:49.915Z,18.90
2019-04-26T16:28:00.912Z,18.90
2019-04-26T16:30:07.058Z,19.00
2019-04-26T16:32:16.824Z,18.90
2019-04-26T16:34:27.252Z,19.00
2019-04-26T16:36:29.849Z,19.00
2019-04-26T16:38:39.706Z,19.00
2019-04-26T16:40:43.501Z,19.00
2019-04-26T16:42:49.731Z,19.00
2019-04-26T16:44:48.930Z,19.00
2019-04-26T16:49:01.855Z,19.00
2019-04-26T16:51:00.871Z,19.00
2019-04-26T16:53:01.066Z,19.10
2019-04-26T16:55:04.447Z,19.10
2019-04-26T16:57:11.592Z,19.10
2019-04-26T16:59:14.265Z,19.10
2019-04-26T17:01:14.703Z,19.10
2019-04-26T17:03:15.038Z,19.00
2019-04-26T17:07:23.109Z,19.00
2019-04-26T17:09:29.737Z,19.00
2019-04-26T17:09:37.394Z,19.00
2019-04-26T17:09:41.877Z,19.00
2019-04-26T17:11:26.507Z,19.00
2019-04-26T17:13:30.102Z,19.00
2019-04-26T17:15:32.356Z,19.00
2019-04-26T17:17:35.854Z,18.90
2019-04-26T17:19:38.399Z,18.90
2019-04-26T17:21:43.027Z,18.90
2019-04-26T17:24:00.840Z,18.90
2019-04-26T17:26:04.033Z,18.90
2019-04-26T17:28:06.344Z,18.80
2019-04-26T17:30:08.939Z,18.80
2019-04-26T17:32:13.854Z,18.80
2019-04-26T17:34:14.159Z,18.80
2019-04-26T17:36:17.315Z,18.80
2019-04-26T17:38:20.710Z,18.70
2019-04-26T17:40:25.241Z,18.70
2019-04-26T17:42:30.390Z,18.70
2019-04-26T17:44:28.301Z,18.70
2019-04-26T17:46:32.659Z,18.60
2019-04-26T17:48:35.771Z,18.60
2019-04-26T17:50:38.974Z,18.60
2019-04-26T17:52:44.085Z,18.60
2019-04-26T17:54:49.267Z,18.60
2019-04-26T17:56:47.344Z,18.50
2019-04-26T17:58:54.297Z,18.50
2019-04-26T18:00:52.414Z,18.50
2019-04-26T18:02:54.991Z,18.40
2019-04-26T18:05:02.931Z,18.30
2019-04-26T18:07:03.831Z,18.30
2019-04-26T18:09:03.434Z,18.30
2019-04-26T18:11:05.989Z,18.30
2019-04-26T18:13:11.318Z,18.30
2019-04-26T18:15:16.318Z,18.30
2019-04-26T18:17:15.908Z,18.30
2019-04-26T18:19:35.226Z,18.20
2019-04-26T18:21:38.392Z,18.20
2019-04-26T18:23:42.514Z,18.10
2019-04-26T18:25:46.366Z,18.10
2019-04-26T18:27:47.673Z,18.10
2019-04-26T18:32:04.680Z,18.00
2019-04-26T18:34:07.623Z,18.00
2019-04-26T18:36:10.170Z,18.00
2019-04-26T18:38:13.454Z,17.90
2019-04-26T18:40:15.982Z,17.90
2019-04-26T18:42:19.225Z,17.90
2019-04-26T18:44:35.358Z,17.80
2019-04-26T18:46:31.787Z,17.80
2019-04-26T18:48:35.461Z,17.70
2019-04-26T18:50:36.490Z,17.60
2019-04-26T18:52:37.503Z,17.60
2019-04-26T18:54:40.061Z,17.60
2019-04-26T18:56:42.634Z,17.50
2019-04-26T18:58:45.270Z,17.50
2019-04-26T19:00:47.845Z,17.40
2019-04-26T19:02:53.028Z,17.40
2019-04-26T19:04:53.207Z,17.40
2019-04-26T19:06:57.034Z,17.40
2019-04-26T19:09:04.121Z,17.30
2019-04-26T19:11:03.516Z,17.30
2019-04-26T19:13:11.788Z,17.20
2019-04-26T19:15:24.581Z,17.20
2019-04-26T19:17:31.779Z,17.20
2019-04-26T19:19:33.274Z,17.20
2019-04-26T19:21:40.274Z,17.10
2019-04-26T19:23:41.531Z,17.10
2019-04-26T19:25:43.418Z,17.10
2019-04-26T19:27:49.903Z,17.10
2019-04-26T19:29:51.817Z,17.00
2019-04-26T19:31:56.662Z,17.00
2019-04-26T19:33:56.064Z,17.00
2019-04-26T19:35:58.118Z,17.00
2019-04-26T19:38:00.683Z,16.90
2019-04-26T19:40:09.990Z,16.90
2019-04-26T19:42:06.366Z,16.90
2019-04-26T19:44:09.626Z,16.90
2019-04-26T19:46:17.073Z,16.90
2019-04-26T19:48:20.489Z,16.80
2019-04-26T19:50:41.985Z,16.80
2019-04-26T19:52:42.513Z,16.80
2019-04-26T19:54:43.451Z,16.80
2019-04-26T19:57:03.800Z,16.70
2019-04-26T19:59:04.372Z,16.70
2019-04-26T20:01:06.938Z,16.60
2019-04-26T20:03:13.344Z,16.60
2019-04-26T20:05:12.911Z,16.60
2019-04-26T20:07:16.318Z,16.60
2019-04-26T20:09:22.877Z,16.60
2019-04-26T20:11:22.308Z,16.50
2019-04-26T20:13:24.857Z,16.50
2019-04-26T20:15:28.623Z,16.50
2019-04-26T20:17:29.986Z,16.50
2019-04-26T20:19:37.269Z,16.50
2019-04-26T20:21:35.203Z,16.50
2019-04-26T20:23:43.034Z,16.50
2019-04-26T20:25:41.142Z,16.50
2019-04-26T20:27:43.666Z,16.50
2019-04-26T20:29:47.432Z,16.50
2019-04-26T20:31:52.020Z,16.50
2019-04-26T20:33:54.113Z,16.50
2019-04-26T20:35:57.433Z,16.50
2019-04-26T20:38:01.087Z,16.50
2019-04-26T20:40:16.322Z,16.50
2019-04-26T20:42:05.289Z,16.50
2019-04-26T20:44:10.029Z,16.50
2019-04-26T20:46:15.222Z,16.50
2019-04-26T20:48:13.811Z,16.60
2019-04-26T20:50:17.333Z,16.60
2019-04-26T20:52:21.478Z,16.60
2019-04-26T20:54:22.556Z,16.60
2019-04-26T20:56:25.039Z,16.60
2019-04-26T20:58:28.434Z,16.70
2019-04-26T21:00:31.649Z,16.70
2019-04-26T21:02:33.631Z,16.70
2019-04-26T21:04:38.585Z,16.70
2019-04-26T21:06:39.546Z,16.70
2019-04-26T21:08:42.545Z,16.80
2019-04-26T21:10:44.922Z,16.80
2019-04-26T21:12:51.611Z,16.80
2019-04-26T21:14:51.749Z,16.80
2019-04-26T21:16:53.701Z,16.80
2019-04-26T21:18:56.459Z,16.80
2019-04-26T21:20:59.140Z,16.80
2019-04-26T21:23:02.627Z,16.80
2019-04-26T21:25:05.438Z,16.90
2019-04-26T21:27:13.762Z,16.80
2019-04-26T21:29:21.847Z,16.90
2019-04-26T21:31:32.118Z,16.80
2019-04-26T21:33:38.759Z,16.80
2019-04-26T21:35:38.427Z,16.80
2019-04-26T21:37:43.100Z,16.80
2019-04-26T21:39:50.173Z,16.80
2019-04-26T21:41:54.391Z,16.80
2019-04-26T21:43:57.041Z,16.80
2019-04-26T21:46:07.781Z,16.80
2019-04-26T21:48:06.826Z,16.70
2019-04-26T21:50:06.607Z,16.70
2019-04-26T21:52:09.147Z,16.70
2019-04-26T21:54:14.386Z,16.70
2019-04-26T21:56:14.772Z,16.60
2019-04-26T21:58:16.799Z,16.60
2019-04-26T22:00:30.047Z,16.70
2019-04-26T22:02:34.945Z,16.60
2019-04-26T22:04:37.675Z,16.60
2019-04-26T22:06:38.494Z,16.70
2019-04-26T22:08:43.620Z,16.70
2019-04-26T22:10:46.114Z,16.70
2019-04-26T22:12:48.684Z,16.70
2019-04-26T22:14:57.949Z,16.70
2019-04-26T22:16:57.567Z,16.70
2019-04-26T22:19:16.997Z,16.70
2019-04-26T22:21:35.237Z,16.70
2019-04-26T22:23:38.787Z,16.60
2019-04-26T22:25:42.923Z,16.60
2019-04-26T22:27:46.253Z,16.50
2019-04-26T22:29:51.747Z,16.50
2019-04-26T22:31:51.350Z,16.50
2019-04-26T22:33:55.975Z,16.50
2019-04-26T22:35:58.481Z,16.50
2019-04-26T22:37:59.107Z,16.50
2019-04-26T22:40:03.574Z,16.50
2019-04-26T22:42:04.235Z,16.50
2019-04-26T22:44:06.788Z,16.50
2019-04-26T22:46:28.279Z,16.50
2019-04-26T22:48:23.925Z,16.40
2019-04-26T22:50:25.250Z,16.40
2019-04-26T22:52:28.483Z,16.40
2019-04-26T22:54:31.051Z,16.40
2019-04-26T22:56:37.102Z,16.40
2019-04-26T22:58:36.187Z,16.40
2019-04-26T23:00:38.736Z,16.40
2019-04-26T23:02:43.641Z,16.40
2019-04-26T23:04:45.511Z,16.40
2019-04-26T23:06:48.240Z,16.40
2019-04-26T23:08:50.590Z,16.40
2019-04-26T23:10:53.238Z,16.50
2019-04-26T23:12:57.931Z,16.40
2019-04-26T23:15:04.846Z,16.40
2019-04-26T23:17:23.175Z,16.40
2019-04-26T23:19:33.430Z,16.40
2019-04-26T23:21:35.820Z,16.40
2019-04-26T23:23:40.978Z,16.40
2019-04-26T23:25:41.570Z,16.40
2019-04-26T23:27:44.142Z,16.40
2019-04-26T23:29:49.810Z,16.40
2019-04-26T23:31:50.025Z,16.40
2019-04-26T23:33:53.902Z,16.40
2019-04-26T23:35:56.694Z,16.40
2019-04-26T23:38:00.949Z,16.40
2019-04-26T23:40:03.826Z,16.40
2019-04-26T23:42:04.562Z,16.40
2019-04-26T23:44:07.128Z,16.40
2019-04-26T23:46:09.694Z,16.40
2019-04-26T23:48:13.338Z,16.30
2019-04-26T23:50:15.553Z,16.30
2019-04-26T23:52:18.793Z,16.30
2019-04-26T23:54:21.706Z,16.20
2019-04-26T23:56:25.257Z,16.10
2019-04-26T23:58:27.587Z,16.10
